Time;durP1;ratioP1;P1;durP2;ratioP2;P2;SDS_P1;SDS_P2;PMS_P1;PMS_P2;Temp;Humidity;BMP_temperature;BMP_pressure;BME280_temperature;BME280_humidity;BME280_pressure;Samples;Min_cycle;Max_cycle;Signal;HPM_P1;HPM_P2
2023/03/22 00:01:55;;;;;;;7.00;5.90;;;10.60;99.90;10.60;100278.00;;;;4894158;28;88011;-72
2023/03/22 00:04:21;;;;;;;8.03;5.70;;;10.70;99.90;10.60;100277.00;;;;4895592;28;87736;-72
2023/03/22 00:06:47;;;;;;;7.20;5.07;;;10.70;99.90;10.60;100266.00;;;;4894545;28;102730;-72
2023/03/22 00:09:12;;;;;;;8.20;5.90;;;10.70;99.90;10.60;100272.00;;;;4892939;28;114801;-72
2023/03/22 00:11:38;;;;;;;8.80;6.27;;;10.70;99.90;10.60;100254.00;;;;4892883;28;88960;-72
2023/03/22 00:14:05;;;;;;;10.87;7.43;;;10.70;99.90;10.60;100262.00;;;;4892640;28;102540;-72
2023/03/22 00:16:30;;;;;;;7.37;5.83;;;10.70;99.90;10.60;100253.00;;;;4887611;28;87983;-72
2023/03/22 00:18:56;;;;;;;11.50;7.03;;;10.60;99.90;10.60;100244.00;;;;4891236;28;117676;-72
2023/03/22 00:21:22;;;;;;;7.73;5.63;;;10.60;99.90;10.50;100247.00;;;;4892298;28;117418;-72
2023/03/22 00:23:47;;;;;;;9.93;6.40;;;10.60;99.90;10.50;100256.00;;;;4893286;28;104957;-72
2023/03/22 00:26:14;;;;;;;11.77;6.57;;;10.60;99.90;10.50;100249.00;;;;4895136;28;108732;-72
2023/03/22 00:28:41;;;;;;;14.17;6.33;;;10.60;99.90;10.50;100244.00;;;;4891585;28;88750;-73
2023/03/22 00:31:07;;;;;;;9.97;6.43;;;10.50;99.90;10.40;100242.00;;;;4891179;28;88327;-72
2023/03/22 00:33:33;;;;;;;8.33;6.10;;;10.50;99.90;10.40;100233.00;;;;4891704;28;88659;-67
2023/03/22 00:36:06;;;;;;;9.63;5.97;;;10.50;99.90;10.40;100237.00;;;;4889214;28;107517;-70
2023/03/22 00:38:38;;;;;;;10.93;6.30;;;10.50;99.90;10.30;100236.00;;;;4891309;28;88604;-70
2023/03/22 00:41:15;;;;;;;11.80;5.90;;;10.40;99.90;10.30;100232.00;;;;4889808;28;88915;-70
2023/03/22 00:43:41;;;;;;;7.57;5.87;;;10.40;99.90;10.30;100232.00;;;;4893627;28;87802;-69
2023/03/22 00:46:09;;;;;;;10.53;6.27;;;10.30;99.90;10.30;100229.00;;;;4894003;28;100374;-71
2023/03/22 00:48:34;;;;;;;8.37;6.70;;;10.30;99.90;10.20;100219.00;;;;4889707;28;88222;-70
2023/03/22 00:51:00;;;;;;;12.80;6.77;;;10.30;99.90;10.20;100219.00;;;;4891803;28;87995;-70
2023/03/22 00:53:27;;;;;;;8.63;7.27;;;10.30;99.90;10.20;100224.00;;;;4890296;28;110686;-70
2023/03/22 00:55:55;;;;;;;9.63;7.20;;;10.30;99.90;10.10;100219.00;;;;4891206;28;88140;-70
2023/03/22 00:58:20;;;;;;;10.30;7.13;;;10.20;99.90;10.10;100216.00;;;;4891051;28;90086;-70
2023/03/22 01:00:47;;;;;;;9.23;6.07;;;10.20;99.90;10.00;100216.00;;;;4892616;28;89574;-70
2023/03/22 01:03:14;;;;;;;12.83;7.30;;;10.10;99.90;10.00;100223.00;;;;4894308;28;87801;-70
2023/03/22 01:05:41;;;;;;;8.60;5.63;;;10.00;99.90;9.90;100238.00;;;;4892089;28;87729;-69
2023/03/22 01:08:09;;;;;;;7.57;6.13;;;10.00;99.90;9.90;100219.00;;;;4907360;28;109820;-69
2023/03/22 01:10:36;;;;;;;7.67;6.87;;;10.00;99.90;9.90;100233.00;;;;4892576;28;87782;-69
2023/03/22 01:13:03;;;;;;;9.97;5.47;;;9.90;99.90;9.80;100230.00;;;;4894051;28;87872;-69
2023/03/22 01:15:28;;;;;;;8.70;6.33;;;9.90;99.90;9.80;100218.00;;;;4891927;28;87117;-69
2023/03/22 01:17:54;;;;;;;6.97;5.47;;;9.90;99.90;9.80;100211.00;;;;4890874;28;100730;-69
2023/03/22 01:20:20;;;;;;;12.73;5.90;;;9.90;99.90;9.70;100214.00;;;;4892936;28;116382;-69
2023/03/22 01:22:45;;;;;;;8.80;6.43;;;9.80;99.90;9.70;100208.00;;;;4892722;28;88744;-70
2023/03/22 01:25:12;;;;;;;6.87;6.10;;;9.80;99.90;9.60;100216.00;;;;4892226;28;109300;-70
2023/03/22 01:27:38;;;;;;;10.87;6.67;;;9.70;99.90;9.60;100212.00;;;;4890397;28;88395;-70
2023/03/22 01:30:05;;;;;;;11.87;6.87;;;9.70;99.90;9.50;100213.00;;;;4887933;28;117012;-69
2023/03/22 01:32:32;;;;;;;11.63;6.50;;;9.60;99.90;9.50;100210.00;;;;4890422;28;87840;-69
2023/03/22 01:34:57;;;;;;;9.10;6.13;;;9.60;99.90;9.50;100198.00;;;;4893171;28;88013;-69
2023/03/22 01:37:26;;;;;;;12.00;6.27;;;9.60;99.90;9.40;100195.00;;;;4889874;28;116071;-69
2023/03/22 01:39:53;;;;;;;9.17;6.17;;;9.60;99.90;9.40;100190.00;;;;4893612;28;88500;-69
2023/03/22 01:42:21;;;;;;;14.43;8.17;;;9.50;99.90;9.40;100182.00;;;;4891609;28;88319;-69
2023/03/22 01:45:36;;;;;;;8.53;6.40;;;9.50;99.90;9.20;100172.00;;;;4888751;28;87794;-70
2023/03/22 01:48:17;;;;;;;8.63;4.53;;;9.40;99.90;9.20;100171.00;;;;4883780;28;88969;-70
2023/03/22 01:50:54;;;;;;;8.20;7.20;;;9.40;99.90;9.20;100182.00;;;;4882362;28;102829;-70
2023/03/22 01:53:22;;;;;;;8.63;5.57;;;9.30;99.90;9.10;100175.00;;;;4906000;28;88032;-70
2023/03/22 01:55:48;;;;;;;11.13;6.70;;;9.20;99.90;9.10;100161.00;;;;4893280;28;88166;-69
2023/03/22 01:58:16;;;;;;;11.13;5.83;;;9.20;99.90;9.00;100168.00;;;;4893813;28;117211;-69
2023/03/22 02:00:44;;;;;;;10.50;6.97;;;9.10;99.90;9.00;100170.00;;;;4890057;28;88802;-69
2023/03/22 02:03:11;;;;;;;8.83;6.07;;;9.10;99.90;9.00;100165.00;;;;4896083;28;87726;-71
2023/03/22 02:05:39;;;;;;;10.67;5.97;;;9.10;99.90;8.90;100164.00;;;;4892734;28;102887;-70
2023/03/22 02:08:07;;;;;;;9.03;7.20;;;9.00;99.90;8.90;100169.00;;;;4911731;28;87891;-70
2023/03/22 02:10:33;;;;;;;10.10;5.23;;;8.90;99.90;8.80;100173.00;;;;4895501;28;87766;-71
2023/03/22 02:13:17;;;;;;;7.40;4.73;;;8.90;99.90;8.70;100172.00;;;;4894100;28;109414;-70
2023/03/22 02:16:12;;;;;;;7.50;5.10;;;8.90;99.90;8.70;100171.00;;;;4896391;28;90552;-71
2023/03/22 02:19:01;;;;;;;11.83;6.27;;;8.80;99.90;8.70;100165.00;;;;4894147;28;88281;-69
2023/03/22 02:22:01;;;;;;;12.13;6.93;;;8.80;99.90;8.70;100169.00;;;;4878022;28;89213;-69
2023/03/22 02:25:00;;;;;;;7.17;5.60;;;8.80;99.90;8.60;100166.00;;;;4895067;28;88041;-70
2023/03/22 02:28:10;;;;;;;6.97;5.53;;;8.80;99.90;8.60;100165.00;;;;4895173;28;87696;-69
2023/03/22 02:30:54;;;;;;;8.13;6.70;;;8.70;99.90;8.60;100173.00;;;;4892190;28;87791;-69
2023/03/22 02:34:09;;;;;;;6.93;5.57;;;8.80;99.90;8.60;100161.00;;;;4911660;28;87136;-69
2023/03/22 02:37:08;;;;;;;5.93;5.20;;;8.70;99.90;8.50;100171.00;;;;4874926;28;88734;-68
2023/03/22 02:39:45;;;;;;;7.20;4.37;;;8.70;99.90;8.50;100149.00;;;;4888712;28;95661;-71
2023/03/22 02:42:44;;;;;;;9.17;5.10;;;8.60;99.90;8.40;100150.00;;;;4910637;28;88858;-72
2023/03/22 02:45:35;;;;;;;7.43;4.63;;;8.60;99.90;8.40;100150.00;;;;4893749;28;87955;-71
2023/03/22 02:48:28;;;;;;;8.13;5.17;;;8.60;99.90;8.40;100155.00;;;;4890704;28;88046;-69
2023/03/22 02:51:14;;;;;;;6.23;4.47;;;8.50;99.90;8.30;100147.00;;;;4892551;28;100111;-71
2023/03/22 02:53:56;;;;;;;6.20;4.27;;;8.50;99.90;8.30;100147.00;;;;4891454;28;88149;-70
2023/03/22 02:56:34;;;;;;;6.47;4.47;;;8.50;99.90;8.30;100142.00;;;;4877187;28;89817;-69
2023/03/22 02:59:03;;;;;;;8.53;5.43;;;8.50;99.90;8.40;100158.00;;;;4909471;28;87868;-71
2023/03/22 03:01:38;;;;;;;8.73;5.47;;;8.50;99.90;8.40;100153.00;;;;4891028;28;100085;-69
2023/03/22 03:04:10;;;;;;;6.83;5.47;;;8.50;99.90;8.40;100148.00;;;;4909303;28;112229;-71
2023/03/22 03:06:45;;;;;;;9.57;4.63;;;8.40;99.90;8.40;100148.00;;;;4906244;28;112207;-72
2023/03/22 03:09:16;;;;;;;4.73;4.33;;;8.50;99.90;8.30;100146.00;;;;4907616;28;88887;-71
2023/03/22 03:11:51;;;;;;;7.87;5.03;;;8.40;99.90;8.30;100152.00;;;;4893862;28;87934;-71
2023/03/22 03:14:26;;;;;;;13.00;5.00;;;8.40;99.90;8.30;100148.00;;;;4892210;28;109043;-72
2023/03/22 03:17:28;;;;;;;11.77;5.37;;;8.40;99.90;8.30;100147.00;;;;4894794;28;88344;-70
2023/03/22 03:20:00;;;;;;;5.73;4.27;;;8.40;99.90;8.30;100148.00;;;;4894507;28;87815;-72
2023/03/22 03:23:00;;;;;;;6.10;4.20;;;8.40;99.90;8.20;100134.00;;;;4908142;28;87823;-71
2023/03/22 03:26:13;;;;;;;5.33;4.43;;;8.30;99.90;8.20;100147.00;;;;4895504;28;87957;-71
2023/03/22 03:29:20;;;;;;;4.70;4.20;;;8.40;99.90;8.20;100147.00;;;;4909251;28;90092;-69
2023/03/22 03:32:05;;;;;;;9.33;4.97;;;8.30;99.90;8.20;100137.00;;;;4906163;28;87915;-69
2023/03/22 03:34:44;;;;;;;6.90;4.63;;;8.30;99.90;8.20;100143.00;;;;4892895;28;88069;-70
2023/03/22 03:37:19;;;;;;;5.20;3.93;;;8.30;99.90;8.20;100142.00;;;;4908924;28;90451;-70
2023/03/22 03:40:00;;;;;;;5.43;4.60;;;8.30;99.90;8.10;100147.00;;;;4906466;28;113252;-70
2023/03/22 03:42:27;;;;;;;6.03;4.57;;;8.30;99.90;8.10;100154.00;;;;4908514;28;87878;-70
2023/03/22 03:44:55;;;;;;;5.77;4.67;;;8.20;99.90;8.10;100151.00;;;;4909055;28;109350;-68
2023/03/22 03:47:21;;;;;;;7.07;5.03;;;8.20;99.90;8.10;100149.00;;;;4887932;28;118330;-71
2023/03/22 03:49:47;;;;;;;4.90;4.07;;;8.20;99.90;8.10;100141.00;;;;4892193;28;107096;-71
2023/03/22 03:52:13;;;;;;;7.30;4.07;;;8.20;99.90;8.10;100142.00;;;;4892036;28;110738;-70
2023/03/22 03:54:39;;;;;;;8.20;4.50;;;8.30;99.90;8.10;100147.00;;;;4890782;28;104198;-70
2023/03/22 03:57:05;;;;;;;5.07;4.07;;;8.20;99.90;8.10;100147.00;;;;4893493;28;89058;-72
2023/03/22 03:59:40;;;;;;;5.47;4.13;;;8.20;99.90;8.10;100152.00;;;;4893139;28;116691;-71
2023/03/22 04:02:08;;;;;;;6.00;3.87;;;8.20;99.90;8.10;100154.00;;;;4894095;28;89050;-70
2023/03/22 04:04:34;;;;;;;7.00;3.87;;;8.20;99.90;8.00;100148.00;;;;4893197;28;108556;-71
2023/03/22 04:07:03;;;;;;;5.53;3.83;;;8.20;99.90;8.10;100150.00;;;;4894784;28;89089;-70
2023/03/22 04:09:50;;;;;;;4.40;3.43;;;8.20;99.90;8.00;100148.00;;;;4894486;28;88648;-71
2023/03/22 04:12:16;;;;;;;4.47;3.97;;;8.20;99.90;8.00;100141.00;;;;4891787;28;110385;-69
2023/03/22 04:14:42;;;;;;;7.40;3.87;;;8.10;99.90;8.00;100147.00;;;;4892218;28;107060;-72
2023/03/22 04:17:10;;;;;;;8.53;3.83;;;8.10;99.90;8.00;100144.00;;;;4893572;28;110039;-69
2023/03/22 04:19:36;;;;;;;5.73;3.77;;;8.10;99.90;8.00;100146.00;;;;4908077;28;116479;-69
2023/03/22 04:22:02;;;;;;;7.60;4.10;;;8.10;99.90;7.90;100151.00;;;;4891761;28;108566;-71
2023/03/22 04:24:27;;;;;;;7.90;5.10;;;8.10;99.90;7.90;100152.00;;;;4890460;28;108447;-73
2023/03/22 04:26:53;;;;;;;3.57;3.03;;;8.00;99.90;7.90;100152.00;;;;4891407;28;118835;-73
2023/03/22 04:29:20;;;;;;;6.50;3.20;;;8.00;99.90;7.90;100157.00;;;;4904653;28;88419;-73
2023/03/22 04:31:46;;;;;;;7.03;4.37;;;8.00;99.90;7.90;100147.00;;;;4892757;28;87863;-71
2023/03/22 04:34:12;;;;;;;5.00;3.80;;;8.00;99.90;7.80;100153.00;;;;4895253;28;87892;-70
2023/03/22 04:36:38;;;;;;;6.23;2.80;;;8.00;99.90;7.80;100145.00;;;;4893329;28;88402;-68
2023/03/22 04:39:10;;;;;;;5.37;3.37;;;7.90;99.90;7.80;100153.00;;;;4893704;28;90095;-70
2023/03/22 04:41:36;;;;;;;6.60;4.20;;;7.90;99.90;7.80;100150.00;;;;4888659;28;97688;-72
2023/03/22 04:44:06;;;;;;;5.10;3.50;;;7.90;99.90;7.70;100146.00;;;;4892402;28;108626;-73
2023/03/22 04:46:35;;;;;;;6.37;3.33;;;7.90;99.90;7.70;100144.00;;;;4910530;28;87936;-72
2023/03/22 04:49:01;;;;;;;4.93;3.70;;;7.80;99.90;7.70;100151.00;;;;4891268;28;89120;-72
2023/03/22 04:51:27;;;;;;;6.03;3.80;;;7.80;99.90;7.70;100132.00;;;;4877090;28;88934;-72
2023/03/22 04:53:53;;;;;;;4.67;4.27;;;7.80;99.90;7.60;100141.00;;;;4889127;28;108900;-72
2023/03/22 04:56:19;;;;;;;5.63;4.10;;;7.90;99.90;7.60;100132.00;;;;4907178;28;97990;-72
2023/03/22 04:58:45;;;;;;;7.00;4.27;;;7.80;99.90;7.60;100127.00;;;;4906404;28;108835;-72
2023/03/22 05:01:14;;;;;;;8.23;4.70;;;7.70;99.90;7.60;100136.00;;;;4893303;28;87683;-72
2023/03/22 05:03:41;;;;;;;9.67;3.87;;;7.70;99.90;7.50;100131.00;;;;4895130;28;88498;-72
2023/03/22 05:06:08;;;;;;;4.03;3.27;;;7.90;99.90;7.50;100138.00;;;;4890924;28;88925;-72
2023/03/22 05:08:34;;;;;;;6.90;3.97;;;7.60;99.90;7.50;100128.00;;;;4893625;28;88146;-72
2023/03/22 05:11:07;;;;;;;5.30;3.37;;;7.60;99.90;7.50;100136.00;;;;4894474;28;101044;-72
2023/03/22 05:13:32;;;;;;;4.17;3.77;;;7.60;99.90;7.50;100133.00;;;;4894148;28;87719;-72
2023/03/22 05:15:58;;;;;;;3.87;3.07;;;7.60;99.90;7.50;100141.00;;;;4908534;28;118123;-72
2023/03/22 05:18:25;;;;;;;7.17;4.43;;;7.60;99.90;7.50;100127.00;;;;4892759;28;88783;-73
2023/03/22 05:20:54;;;;;;;3.90;3.13;;;7.60;99.90;7.50;100136.00;;;;4906287;28;88083;-73
2023/03/22 05:23:21;;;;;;;5.43;4.30;;;7.70;99.90;7.50;100123.00;;;;4894546;28;89425;-73
2023/03/22 05:25:48;;;;;;;4.93;3.50;;;7.60;99.90;7.50;100128.00;;;;4895373;28;89053;-73
2023/03/22 05:28:18;;;;;;;3.57;2.97;;;7.60;99.90;7.50;100131.00;;;;4906485;28;87896;-72
2023/03/22 05:30:44;;;;;;;7.30;4.37;;;7.60;99.90;7.50;100134.00;;;;4891686;28;87896;-73
2023/03/22 05:33:11;;;;;;;4.83;3.17;;;7.60;99.90;7.50;100131.00;;;;4885392;28;110075;-73
2023/03/22 05:35:40;;;;;;;6.57;3.50;;;7.70;99.90;7.50;100136.00;;;;4901380;28;88151;-73
2023/03/22 05:38:06;;;;;;;9.50;3.50;;;7.70;99.90;7.60;100142.00;;;;4882002;28;90298;-72
2023/03/22 05:40:32;;;;;;;6.83;3.50;;;7.70;99.90;7.60;100135.00;;;;4886557;28;109610;-72
2023/03/22 05:42:58;;;;;;;4.33;3.40;;;7.70;99.90;7.60;100141.00;;;;4891195;28;88051;-72
2023/03/22 05:45:24;;;;;;;5.43;3.93;;;7.70;99.90;7.70;100140.00;;;;4889273;28;106880;-73
2023/03/22 05:47:50;;;;;;;8.80;3.77;;;7.80;99.90;7.70;100141.00;;;;4889665;28;88189;-73
2023/03/22 05:50:19;;;;;;;4.37;3.87;;;7.90;99.90;7.80;100147.00;;;;4883530;28;88271;-72
2023/03/22 05:52:45;;;;;;;5.37;4.13;;;7.90;99.90;7.90;100141.00;;;;4886537;28;87983;-73
2023/03/22 05:55:12;;;;;;;5.27;3.57;;;7.90;99.90;7.90;100134.00;;;;4888169;28;87756;-73
2023/03/22 05:57:39;;;;;;;3.33;2.90;;;8.00;99.90;8.00;100137.00;;;;4892130;28;87144;-71
2023/03/22 06:00:12;;;;;;;6.47;3.57;;;8.10;99.90;8.00;100133.00;;;;4891701;28;101170;-71
2023/03/22 06:02:47;;;;;;;3.17;2.87;;;8.10;99.90;8.00;100128.00;;;;4889809;28;88181;-72
2023/03/22 06:05:15;;;;;;;7.67;4.57;;;8.20;99.90;8.10;100121.00;;;;4891469;28;89257;-72
2023/03/22 06:07:41;;;;;;;6.20;4.23;;;8.20;99.90;8.10;100132.00;;;;4891008;28;88613;-72
2023/03/22 06:10:11;;;;;;;6.37;4.37;;;8.20;99.90;8.20;100114.00;;;;4890826;28;87976;-72
2023/03/22 06:12:36;;;;;;;7.17;3.43;;;8.20;99.90;8.20;100124.00;;;;4892859;28;100807;-72
2023/03/22 06:15:03;;;;;;;6.23;4.37;;;8.30;99.90;8.30;100118.00;;;;4890649;28;104973;-72
2023/03/22 06:17:29;;;;;;;5.77;4.70;;;8.30;99.90;8.30;100115.00;;;;4893907;28;95883;-70
2023/03/22 06:19:55;;;;;;;7.90;4.93;;;8.40;99.90;8.40;100125.00;;;;4893680;28;87991;-70
2023/03/22 06:22:22;;;;;;;11.63;5.17;;;8.40;99.90;8.40;100116.00;;;;4892434;28;87118;-71
2023/03/22 06:24:49;;;;;;;5.17;4.23;;;8.50;99.90;8.50;100120.00;;;;4890276;28;96539;-71
2023/03/22 06:27:15;;;;;;;5.70;3.53;;;8.50;99.90;8.50;100128.00;;;;4904725;28;93096;-70
2023/03/22 06:29:40;;;;;;;6.17;4.47;;;8.60;99.90;8.60;100126.00;;;;4890183;28;88742;-70
2023/03/22 06:32:06;;;;;;;5.50;4.07;;;8.70;99.90;8.70;100138.00;;;;4893303;28;108175;-71
2023/03/22 06:34:32;;;;;;;6.97;4.70;;;8.80;99.90;8.80;100128.00;;;;4889507;28;108238;-70
2023/03/22 06:36:58;;;;;;;7.07;3.97;;;8.80;99.90;8.80;100133.00;;;;4891455;28;117633;-70
2023/03/22 06:39:24;;;;;;;8.20;3.70;;;8.90;99.90;8.90;100125.00;;;;4888871;28;110117;-70
2023/03/22 06:41:50;;;;;;;4.47;3.53;;;8.90;99.90;8.90;100120.00;;;;4891403;28;87609;-70
2023/03/22 06:44:16;;;;;;;4.83;3.47;;;9.20;99.90;9.00;100125.00;;;;4895797;28;89194;-69
2023/03/22 06:46:42;;;;;;;4.33;2.90;;;9.00;99.90;9.00;100129.00;;;;4892449;28;88886;-69
2023/03/22 06:49:07;;;;;;;4.73;3.70;;;9.10;99.90;9.00;100133.00;;;;4894170;28;110711;-70
2023/03/22 06:51:33;;;;;;;7.67;4.27;;;9.10;99.90;9.10;100137.00;;;;4893246;28;87823;-70
2023/03/22 06:53:59;;;;;;;4.30;3.40;;;9.10;99.90;9.10;100131.00;;;;4895181;28;89722;-68
2023/03/22 06:56:25;;;;;;;6.77;3.90;;;9.20;99.90;9.20;100139.00;;;;4894962;28;89560;-70
2023/03/22 06:58:53;;;;;;;6.03;3.20;;;9.30;99.90;9.30;100139.00;;;;4891991;28;87761;-68
2023/03/22 07:01:20;;;;;;;4.93;3.60;;;9.30;99.90;9.30;100133.00;;;;4891943;28;88497;-67
2023/03/22 07:03:45;;;;;;;6.00;4.03;;;9.40;99.90;9.40;100137.00;;;;4893399;28;88360;-67
2023/03/22 07:06:11;;;;;;;5.20;3.53;;;9.40;99.90;9.50;100136.00;;;;4894475;28;114468;-67
2023/03/22 07:08:37;;;;;;;6.30;3.80;;;9.50;99.90;9.60;100134.00;;;;4895164;28;87873;-66
2023/03/22 07:11:05;;;;;;;6.67;3.70;;;9.50;99.90;9.60;100136.00;;;;4895104;28;109515;-67
2023/03/22 07:13:31;;;;;;;3.73;3.07;;;9.60;99.90;9.70;100131.00;;;;4896158;28;88048;-66
2023/03/22 07:16:01;;;;;;;5.67;3.30;;;9.70;99.90;9.70;100140.00;;;;4893616;28;116530;-66
2023/03/22 07:18:28;;;;;;;6.50;3.50;;;9.80;99.90;9.80;100136.00;;;;4893839;28;88783;-65
2023/03/22 07:20:54;;;;;;;4.17;2.97;;;9.80;99.90;9.90;100142.00;;;;4897092;28;88121;-68
2023/03/22 07:23:20;;;;;;;4.20;3.50;;;10.00;99.90;9.90;100138.00;;;;4892132;28;116901;-66
2023/03/22 07:25:48;;;;;;;5.30;2.57;;;10.20;99.90;10.00;100146.00;;;;4895148;28;88710;-67
2023/03/22 07:28:14;;;;;;;4.83;2.77;;;10.00;99.90;10.10;100145.00;;;;4896002;28;87875;-66
2023/03/22 07:30:40;;;;;;;4.43;2.63;;;10.10;99.90;10.20;100134.00;;;;4893556;28;109981;-66
2023/03/22 07:33:12;;;;;;;3.80;2.93;;;10.20;99.90;10.30;100137.00;;;;4892500;28;117107;-67
2023/03/22 07:35:39;;;;;;;6.13;3.43;;;10.30;99.90;10.40;100141.00;;;;4890432;28;109932;-67
2023/03/22 07:38:05;;;;;;;6.53;3.00;;;10.40;99.90;10.60;100137.00;;;;4892675;28;88183;-65
2023/03/22 07:40:31;;;;;;;4.03;2.47;;;10.50;99.90;10.70;100132.00;;;;4895747;28;88340;-67
2023/03/22 07:42:57;;;;;;;5.20;3.03;;;10.70;99.90;10.90;100127.00;;;;4907597;28;94159;-66
2023/03/22 07:45:24;;;;;;;3.83;2.43;;;10.90;99.90;11.20;100128.00;;;;4892839;28;89805;-65
2023/03/22 07:47:50;;;;;;;4.90;2.60;;;11.10;99.90;11.40;100118.00;;;;4892820;28;88895;-66
2023/03/22 07:50:16;;;;;;;4.67;3.23;;;11.30;99.90;11.70;100124.00;;;;4889638;28;105613;-66
2023/03/22 07:52:43;;;;;;;5.23;2.80;;;11.60;99.90;12.00;100130.00;;;;4892337;28;88955;-66
2023/03/22 07:55:12;;;;;;;3.87;3.13;;;11.80;99.90;12.30;100135.00;;;;4896214;28;87935;-66
2023/03/22 07:57:38;;;;;;;2.40;2.10;;;12.20;99.90;12.60;100127.00;;;;4895166;28;88025;-67
2023/03/22 08:00:09;;;;;;;4.73;2.93;;;12.50;99.90;12.80;100139.00;;;;4892330;28;87402;-65
2023/03/22 08:02:36;;;;;;;3.87;3.20;;;12.70;99.90;13.00;100124.00;;;;4877208;28;90618;-66
2023/03/22 08:05:02;;;;;;;4.40;2.60;;;12.90;99.90;13.10;100126.00;;;;4893816;28;87928;-66
2023/03/22 08:07:29;;;;;;;4.93;2.97;;;13.00;99.90;13.20;100133.00;;;;4891583;28;88998;-65
2023/03/22 08:09:55;;;;;;;3.97;2.63;;;13.20;99.90;13.30;100134.00;;;;4892739;28;87883;-67
2023/03/22 08:12:21;;;;;;;3.07;2.23;;;13.30;99.90;13.40;100132.00;;;;4892035;28;88226;-67
2023/03/22 08:14:49;;;;;;;5.70;3.20;;;13.40;99.90;13.50;100122.00;;;;4893860;28;108659;-66
2023/03/22 08:17:17;;;;;;;5.87;2.93;;;13.50;99.90;13.70;100125.00;;;;4894335;28;88004;-66
2023/03/22 08:19:43;;;;;;;7.33;2.23;;;13.60;99.90;13.80;100129.00;;;;4892131;28;87931;-65
2023/03/22 08:22:10;;;;;;;6.07;2.40;;;13.70;99.90;13.90;100122.00;;;;4894469;28;88082;-66
2023/03/22 08:24:36;;;;;;;3.40;2.50;;;13.90;99.90;14.10;100130.00;;;;4893693;28;88496;-65
2023/03/22 08:27:02;;;;;;;4.13;2.73;;;14.00;99.90;14.20;100135.00;;;;4892593;28;103621;-65
2023/03/22 08:29:28;;;;;;;3.27;2.60;;;14.10;99.90;14.20;100135.00;;;;4893868;28;87764;-67
2023/03/22 08:31:54;;;;;;;3.13;2.37;;;14.10;99.90;14.20;100124.00;;;;4894023;28;89141;-65
2023/03/22 08:34:20;;;;;;;3.30;2.57;;;14.20;99.90;14.10;100129.00;;;;4891534;28;89649;-67
2023/03/22 08:36:46;;;;;;;4.23;2.50;;;14.10;99.90;14.10;100132.00;;;;4892894;28;98028;-66
2023/03/22 08:39:12;;;;;;;5.03;2.65;;;14.10;99.90;14.10;100131.00;;;;4894634;28;107892;-67
2023/03/22 08:41:38;;;;;;;3.22;2.78;;;14.10;99.90;14.10;100134.00;;;;4893958;28;88688;-66
2023/03/22 08:44:04;;;;;;;4.43;2.40;;;14.10;99.90;14.10;100121.00;;;;4891530;28;88005;-67
2023/03/22 08:46:30;;;;;;;2.63;2.15;;;14.10;99.90;14.00;100130.00;;;;4894527;28;87943;-67
2023/03/22 08:48:59;;;;;;;3.72;2.92;;;14.00;99.90;14.00;100131.00;;;;4892452;28;108931;-68
2023/03/22 08:51:25;;;;;;;3.10;2.00;;;14.00;99.90;13.90;100126.00;;;;4891775;28;89722;-69
2023/03/22 08:53:51;;;;;;;5.03;2.92;;;13.80;99.90;14.00;100119.00;;;;4907916;28;88274;-67
2023/03/22 08:56:16;;;;;;;5.00;2.30;;;14.00;99.90;14.00;100127.00;;;;4894429;28;88797;-67
2023/03/22 08:58:45;;;;;;;3.03;1.67;;;14.00;99.90;14.10;100114.00;;;;4892596;28;88272;-67
2023/03/22 09:01:16;;;;;;;3.97;2.53;;;14.00;99.90;14.10;100113.00;;;;4891421;28;88644;-67
2023/03/22 09:03:42;;;;;;;3.90;2.55;;;14.00;99.90;14.20;100124.00;;;;4893601;28;89007;-67
2023/03/22 09:06:12;;;;;;;4.43;2.38;;;14.10;99.90;14.20;100127.00;;;;4893647;28;110391;-66
2023/03/22 09:08:38;;;;;;;6.95;2.58;;;14.20;99.90;14.30;100123.00;;;;4891092;28;87838;-68
2023/03/22 09:11:08;;;;;;;3.05;2.03;;;14.30;99.90;14.40;100122.00;;;;4894617;28;88070;-66
2023/03/22 09:13:33;;;;;;;3.33;2.35;;;14.30;99.90;14.40;100124.00;;;;4891887;28;91035;-67
2023/03/22 09:15:59;;;;;;;4.13;2.67;;;14.30;99.90;14.40;100113.00;;;;4892014;28;111611;-66
2023/03/22 09:18:25;;;;;;;3.63;2.30;;;14.40;99.90;14.50;100122.00;;;;4891686;28;88105;-66
2023/03/22 09:20:51;;;;;;;3.22;2.10;;;14.40;99.90;14.50;100111.00;;;;4890381;28;118428;-67
2023/03/22 09:23:18;;;;;;;3.40;2.20;;;14.40;99.90;14.60;100119.00;;;;4893361;28;89818;-66
2023/03/22 09:25:45;;;;;;;2.85;1.90;;;14.50;99.90;14.60;100121.00;;;;4893377;28;96101;-66
2023/03/22 09:28:11;;;;;;;2.92;1.77;;;14.60;99.90;14.70;100119.00;;;;4893338;28;88044;-66
2023/03/22 09:30:37;;;;;;;3.10;2.63;;;14.60;99.90;14.70;100104.00;;;;4894603;28;89125;-66
2023/03/22 09:33:03;;;;;;;3.38;2.05;;;14.60;99.90;14.70;100107.00;;;;4894091;28;88226;-66
2023/03/22 09:35:30;;;;;;;2.53;1.98;;;14.70;99.90;14.80;100109.00;;;;4893177;28;110371;-66
2023/03/22 09:37:57;;;;;;;3.80;2.28;;;14.70;99.90;14.90;100104.00;;;;4894805;28;86843;-66
2023/03/22 09:40:31;;;;;;;4.18;2.05;;;14.80;99.90;15.00;100105.00;;;;4891867;28;88946;-66
2023/03/22 09:43:00;;;;;;;2.50;1.75;;;14.90;99.90;15.10;100103.00;;;;4897806;28;88134;-66
2023/03/22 09:45:38;;;;;;;3.42;2.85;;;15.00;99.90;15.10;100104.00;;;;4891993;28;89250;-66
2023/03/22 09:48:37;;;;;;;1.88;1.40;;;15.00;99.90;15.20;100097.00;;;;4906385;28;88043;-65
2023/03/22 09:51:06;;;;;;;3.20;2.50;;;15.20;99.90;15.40;100087.00;;;;4884809;28;112065;-65
2023/03/22 09:53:32;;;;;;;2.00;1.73;;;15.30;99.90;15.50;100085.00;;;;4894986;28;88596;-66
2023/03/22 09:56:14;;;;;;;2.58;1.90;;;15.30;99.90;15.60;100068.00;;;;4895954;28;88210;-65
2023/03/22 09:58:57;;;;;;;2.88;1.85;;;15.50;99.90;15.70;100069.00;;;;4891145;28;87808;-65
2023/03/22 10:01:56;;;;;;;3.35;2.28;;;15.30;99.90;15.70;100081.00;;;;4894223;28;99674;-65
2023/03/22 10:04:53;;;;;;;3.17;2.15;;;15.60;99.90;15.80;100058.00;;;;4894155;28;87092;-66
2023/03/22 10:08:10;;;;;;;3.22;2.40;;;15.70;99.90;15.90;100075.00;;;;4905664;28;100477;-65
2023/03/22 10:10:40;;;;;;;3.38;2.03;;;15.80;99.90;16.20;100061.00;;;;4892359;28;95016;-64
2023/03/22 10:13:18;;;;;;;5.57;2.67;;;16.10;99.80;16.60;100067.00;;;;4888838;28;89443;-65
2023/03/22 10:15:51;;;;;;;3.58;2.00;;;16.40;99.40;16.90;100058.00;;;;4909108;28;88186;-65
2023/03/22 10:18:31;;;;;;;2.95;2.63;;;16.70;98.60;17.30;100066.00;;;;4895740;28;87842;-65
2023/03/22 10:21:07;;;;;;;5.05;2.55;;;17.10;98.40;17.70;100064.00;;;;4892248;28;99507;-66
2023/03/22 10:23:52;;;;;;;5.47;2.08;;;17.40;95.30;17.90;100064.00;;;;4907602;28;88662;-64
2023/03/22 10:26:30;;;;;;;4.45;2.20;;;17.70;93.90;18.10;100068.00;;;;4897175;28;88224;-66
2023/03/22 10:29:27;;;;;;;7.72;2.20;;;17.90;92.90;18.30;100049.00;;;;4907788;28;87849;-65
2023/03/22 10:31:54;;;;;;;2.75;2.05;;;18.10;93.70;18.40;100055.00;;;;4891177;28;87039;-66
2023/03/22 10:34:31;;;;;;;4.13;2.53;;;18.30;90.90;18.30;100054.00;;;;4895039;28;89215;-65
2023/03/22 10:37:00;;;;;;;5.03;2.35;;;18.30;88.30;18.20;100041.00;;;;4894957;28;88789;-65
2023/03/22 10:39:40;;;;;;;4.00;1.90;;;18.10;89.30;18.00;100045.00;;;;4894353;28;88806;-65
2023/03/22 10:42:15;;;;;;;2.45;1.92;;;18.00;87.30;17.90;100048.00;;;;4907426;28;96449;-65
2023/03/22 10:45:04;;;;;;;5.18;1.88;;;17.80;86.50;18.00;100039.00;;;;4890428;28;87951;-66
2023/03/22 10:47:44;;;;;;;3.08;2.00;;;17.90;84.60;18.20;100039.00;;;;4882969;28;89562;-65
2023/03/22 10:50:20;;;;;;;4.90;1.70;;;18.00;86.00;18.40;100033.00;;;;4895508;28;88179;-66
2023/03/22 10:53:38;;;;;;;2.30;1.85;;;18.30;84.20;18.70;100032.00;;;;4896604;28;99443;-67
2023/03/22 10:56:10;;;;;;;2.70;1.38;;;18.70;82.00;18.80;100031.00;;;;4855990;28;87993;-66
2023/03/22 10:58:36;;;;;;;2.03;1.58;;;18.60;82.20;19.00;100014.00;;;;4891351;28;100605;-67
2023/03/22 11:01:08;;;;;;;2.45;1.70;;;18.80;79.10;19.10;100025.00;;;;4896229;28;109780;-65
2023/03/22 11:03:34;;;;;;;2.20;0.93;;;19.00;77.70;19.30;100024.00;;;;4894859;28;93803;-65
2023/03/22 11:06:19;;;;;;;2.63;1.67;;;19.10;74.90;19.40;100020.00;;;;4893745;28;116666;-66
2023/03/22 11:08:47;;;;;;;2.03;1.23;;;19.20;74.60;19.50;100013.00;;;;4895081;28;88646;-66
2023/03/22 11:11:30;;;;;;;1.70;1.60;;;19.30;73.50;19.60;100024.00;;;;4897034;28;94959;-65